TFM - Tactical Decision Aid INFO Settings
 
 

ID: Runway Winds: Threshold: METAR Board: Map:

kiad - Washington-Dulles Intl

Updated at: 1707 UTC 24 Jul 2014
Latest TAF at: 1504 UTC 24 Jul 2014

TAF Board

Time1652Z24/18Z24/19Z24/20Z24/21Z24/22Z24/23Z25/00Z25/01Z25/02Z25/03Z25/04Z25/05Z25/06Z
TypeOBSPRVLPRVLPRVLPRVLPRVLPRVLPRVLPRVLPRVLPRVLPRVLPRVLPRVL
Vis10>6>6>6>6>6>6>6>6>6>6>6>6>6
Cig33100100100100100100100100----------
CoverBKNBKNBKNBKNBKNBKNBKNBKNBKNSCTSCTSCTSCTSCT
FltCat--VFRVFRVFRVFRVFRVFRVFRVFRVFRVFRVFRVFRVFR
Wx----------------------------
WDir350360360360360360360360360350350350350350
WSpd7101010101010101066666
WGst----------------------------
Raw TAF
KIAD 241504Z 2415/2518 36010KT P6SM SCT060 BKN100
  FM250200 35006KT P6SM SCT040 SCT100


Raw METAR
KIAD 241652Z 35007KT 10SM SCT028 BKN033 23/16 A2993 RMK AO2 SLP133 T02330156

TAF/METAR Board Legend

Hazard VFR MVFR IFR LIFR
Visibility (sm) >5 3≤X≤5 1≤X<3 <1
Ceiling (100 ft) >30 10≤X≤5 5≤X<3 <5
Wind Speed (kt) <10 <20 <30 >=30
Wind Gust (kt) <10 <20 <30 >=30
Weather No Wx Reported -TS,-FZRA TS,FZRA +TS,+FZRA

Page loaded:  17:07 UTC  |   10:07 AM Pacific  |   11:07 AM Mountain  |   12:07 PM Central  |   01:07 PM Eastern

 

ADVISORIES

FORECASTS

FORECASTS

OBSERVATIONS

USER TOOLS

ABOUT US